createdAt,value
2022-11-16T00:01:35.295Z,98603.47
2022-11-16T00:04:03.105Z,98594.56
2022-11-16T00:06:30.405Z,98593.50
2022-11-16T00:09:00.136Z,98593.78
2022-11-16T00:11:26.980Z,98584.38
2022-11-16T00:13:53.836Z,98572.16
2022-11-16T00:16:20.632Z,98577.88
2022-11-16T00:18:47.431Z,98577.09
2022-11-16T00:21:14.136Z,98570.50
2022-11-16T00:23:41.289Z,98566.63
2022-11-16T00:26:12.395Z,98562.16
2022-11-16T00:28:39.346Z,98563.91
2022-11-16T00:31:07.477Z,98558.69
2022-11-16T00:33:34.509Z,98555.75
2022-11-16T00:36:03.218Z,98566.41
2022-11-16T00:38:30.383Z,98571.59
2022-11-16T00:40:57.397Z,98567.00
2022-11-16T00:43:24.656Z,98558.88
2022-11-16T00:45:51.444Z,98567.78
2022-11-16T00:48:18.581Z,98563.16
2022-11-16T00:50:46.502Z,98559.44
2022-11-16T00:53:15.858Z,98563.44
2022-11-16T00:55:44.920Z,98564.69
2022-11-16T00:58:13.302Z,98570.81
2022-11-16T01:00:43.178Z,98568.97
2022-11-16T01:03:10.722Z,98566.81
2022-11-16T01:05:38.082Z,98560.81
2022-11-16T01:08:05.349Z,98562.47
2022-11-16T01:10:32.919Z,98559.25
2022-11-16T01:12:59.965Z,98548.50
2022-11-16T01:15:28.079Z,98544.91
2022-11-16T01:17:56.768Z,98546.34
2022-11-16T01:20:29.231Z,98550.81
2022-11-16T01:22:56.682Z,98540.16
2022-11-16T01:25:23.520Z,98540.63
2022-11-16T01:27:50.431Z,98545.59
2022-11-16T01:30:28.124Z,98539.59
2022-11-16T01:33:02.694Z,98537.91
2022-11-16T01:35:29.574Z,98532.19
2022-11-16T01:37:56.382Z,98536.38
2022-11-16T01:40:23.371Z,98524.34
2022-11-16T01:42:50.273Z,98523.56
2022-11-16T01:45:21.501Z,98518.06
2022-11-16T01:47:53.830Z,98509.22
2022-11-16T01:50:24.492Z,98507.28
2022-11-16T01:53:04.555Z,98505.72
2022-11-16T01:55:41.057Z,98501.09
2022-11-16T01:58:26.354Z,98487.22
2022-11-16T02:00:59.225Z,98482.09
2022-11-16T02:03:41.365Z,98487.31
2022-11-16T02:06:27.208Z,98487.91
2022-11-16T02:09:43.293Z,98486.56
2022-11-16T02:13:07.305Z,98490.72
2022-11-16T02:15:49.646Z,98475.78
2022-11-16T02:18:41.636Z,98470.25
2022-11-16T02:21:30.812Z,98456.50
2022-11-16T02:24:42.585Z,98453.09
2022-11-16T02:27:49.634Z,98448.47
2022-11-16T02:30:18.980Z,98439.25
2022-11-16T02:33:03.075Z,98427.25
2022-11-16T02:35:52.566Z,98424.91
2022-11-16T02:38:27.197Z,98423.38
2022-11-16T02:41:19.136Z,98426.16
2022-11-16T02:43:52.667Z,98428.00
2022-11-16T02:46:29.374Z,98424.31
2022-11-16T02:49:01.055Z,98427.25
2022-11-16T02:51:29.530Z,98413.50
2022-11-16T02:54:03.267Z,98415.34
2022-11-16T02:56:56.678Z,98415.34
2022-11-16T02:59:33.575Z,98419.31
2022-11-16T03:02:17.527Z,98410.28
2022-11-16T03:04:49.346Z,98401.16
2022-11-16T03:07:21.362Z,98399.16
2022-11-16T03:09:50.519Z,98405.19
2022-11-16T03:12:22.672Z,98403.03
2022-11-16T03:14:54.767Z,98400.34
2022-11-16T03:17:32.148Z,98398.19
2022-11-16T03:20:03.916Z,98396.16
2022-11-16T03:22:39.660Z,98404.81
2022-11-16T03:25:09.178Z,98401.00
2022-11-16T03:27:45.234Z,98403.44
2022-11-16T03:30:23.344Z,98398.50
2022-11-16T03:33:07.069Z,98406.63
2022-11-16T03:35:56.612Z,98402.47
2022-11-16T03:38:26.641Z,98399.50
2022-11-16T03:40:58.798Z,98399.09
2022-11-16T03:43:27.352Z,98397.66
2022-11-16T03:45:56.101Z,98392.91
2022-11-16T03:48:24.269Z,98391.38
2022-11-16T03:50:52.711Z,98386.72
2022-11-16T03:53:20.340Z,98388.56
2022-11-16T03:55:49.904Z,98375.00
2022-11-16T03:58:17.860Z,98375.78
2022-11-16T04:00:45.852Z,98367.34
2022-11-16T04:03:12.912Z,98360.25
2022-11-16T04:05:40.117Z,98357.94
2022-11-16T04:08:15.105Z,98355.78
2022-11-16T04:10:44.472Z,98355.03
2022-11-16T04:13:14.502Z,98355.91
2022-11-16T04:15:41.398Z,98349.75
2022-11-16T04:18:11.212Z,98348.66
2022-11-16T04:20:38.100Z,98351.63
2022-11-16T04:23:07.416Z,98345.47
2022-11-16T04:25:38.366Z,98340.31
2022-11-16T04:28:13.886Z,98337.25
2022-11-16T04:30:50.832Z,98337.53
2022-11-16T04:33:19.285Z,98337.25
2022-11-16T04:35:46.522Z,98333.56
2022-11-16T04:38:14.598Z,98327.56
2022-11-16T04:40:41.397Z,98332.19
2022-11-16T04:43:11.169Z,98329.41
2022-11-16T04:45:40.853Z,98328.03
2022-11-16T04:48:10.655Z,98325.28
2022-11-16T04:50:38.205Z,98321.31
2022-11-16T04:53:05.895Z,98318.22
2022-11-16T04:55:38.912Z,98319.22
2022-11-16T04:58:06.054Z,98320.47
2022-11-16T05:00:32.958Z,98323.44
2022-11-16T05:03:01.825Z,98329.59
2022-11-16T05:05:29.856Z,98319.41
2022-11-16T05:07:58.447Z,98329.09
2022-11-16T05:10:28.520Z,98323.00
2022-11-16T05:12:56.227Z,98319.13
2022-11-16T05:15:24.149Z,98323.28
2022-11-16T05:17:51.008Z,98321.72
2022-11-16T05:20:21.810Z,98313.88
2022-11-16T05:22:54.648Z,98322.81
2022-11-16T05:25:23.969Z,98320.84
2022-11-16T05:27:51.467Z,98320.38
2022-11-16T05:30:18.751Z,98317.09
2022-11-16T05:32:45.649Z,98323.69
2022-11-16T05:35:14.550Z,98328.50
2022-11-16T05:37:42.683Z,98318.63
2022-11-16T05:40:10.529Z,98330.03
2022-11-16T05:42:43.839Z,98321.25
2022-11-16T05:45:10.739Z,98315.72
2022-11-16T05:47:37.660Z,98301.88
2022-11-16T05:50:04.873Z,98301.56
2022-11-16T05:52:38.053Z,98292.28
2022-11-16T05:55:08.899Z,98292.19
2022-11-16T05:57:41.783Z,98287.53
2022-11-16T06:00:09.927Z,98288.44
2022-11-16T06:02:45.413Z,98295.09
2022-11-16T06:05:20.162Z,98295.69
2022-11-16T06:07:48.097Z,98298.00
2022-11-16T06:10:15.420Z,98298.75
2022-11-16T06:12:44.344Z,98294.72
2022-11-16T06:15:11.249Z,98292.28
2022-11-16T06:17:38.096Z,98291.25
2022-11-16T06:20:07.085Z,98300.91
2022-11-16T06:22:37.079Z,98306.50
2022-11-16T06:25:05.646Z,98306.03
2022-11-16T06:27:37.704Z,98304.78
2022-11-16T06:30:05.020Z,98310.31
2022-11-16T06:32:33.591Z,98310.00
2022-11-16T06:35:00.726Z,98299.38
2022-11-16T06:37:28.079Z,98295.81
2022-11-16T06:39:55.818Z,98294.56
2022-11-16T06:42:23.764Z,98297.34
2022-11-16T06:44:51.748Z,98287.81
2022-11-16T06:47:22.731Z,98289.41
2022-11-16T06:49:49.639Z,98285.56
2022-11-16T06:52:21.092Z,98277.38
2022-11-16T06:54:48.259Z,98268.16
2022-11-16T06:57:15.103Z,98263.22
2022-11-16T06:59:41.907Z,98265.38
2022-11-16T07:02:11.103Z,98265.09
2022-11-16T07:04:38.802Z,98262.16
2022-11-16T07:07:05.761Z,98263.50
2022-11-16T07:09:34.650Z,98255.66
2022-11-16T07:12:01.427Z,98258.78
2022-11-16T07:14:34.772Z,98259.53
2022-11-16T07:17:09.097Z,98256.16
2022-11-16T07:19:36.521Z,98265.72
2022-11-16T07:22:03.773Z,98260.31
2022-11-16T07:24:30.871Z,98269.09
2022-11-16T07:26:57.855Z,98260.97
2022-11-16T07:29:27.101Z,98251.09
2022-11-16T07:32:22.864Z,98255.25
2022-11-16T07:35:12.233Z,98253.88
2022-11-16T07:37:39.832Z,98265.44
2022-11-16T07:40:08.964Z,98257.88
2022-11-16T07:42:38.334Z,98256.97
2022-11-16T07:45:25.578Z,98267.13
2022-11-16T07:47:57.465Z,98261.41
2022-11-16T07:51:04.627Z,98264.34
2022-11-16T07:53:33.935Z,98275.00
2022-11-16T07:56:01.357Z,98269.88
2022-11-16T07:58:32.947Z,98272.03
2022-11-16T08:01:08.065Z,98268.63
2022-11-16T08:03:36.009Z,98264.63
2022-11-16T08:06:13.202Z,98264.19
2022-11-16T08:08:43.298Z,98269.28
2022-11-16T08:11:12.678Z,98270.94
2022-11-16T08:13:41.328Z,98261.25
2022-11-16T08:16:19.049Z,98263.41
2022-11-16T08:18:48.100Z,98263.44
2022-11-16T08:21:17.908Z,98263.00
2022-11-16T08:23:46.927Z,98262.81
2022-11-16T08:26:17.788Z,98262.00
2022-11-16T08:28:50.188Z,98266.19
2022-11-16T08:31:21.793Z,98268.69
2022-11-16T08:33:52.621Z,98265.59
2022-11-16T08:36:20.542Z,98264.34
2022-11-16T08:38:50.759Z,98263.00
2022-11-16T08:41:20.878Z,98270.69
2022-11-16T08:43:48.819Z,98273.91
2022-11-16T08:46:15.724Z,98276.06
2022-11-16T08:48:46.512Z,98268.69
2022-11-16T08:51:17.829Z,98275.44
2022-11-16T08:53:55.225Z,98275.34
2022-11-16T08:56:22.294Z,98276.69
2022-11-16T08:58:53.802Z,98283.19
2022-11-16T09:01:26.435Z,98289.19
2022-11-16T09:03:53.652Z,98279.19
2022-11-16T09:06:21.046Z,98287.50
2022-11-16T09:08:47.905Z,98286.75
2022-11-16T09:11:17.312Z,98288.41
2022-11-16T09:13:45.676Z,98298.88
2022-11-16T09:16:12.827Z,98289.19
2022-11-16T09:18:39.614Z,98291.97
2022-11-16T09:21:06.490Z,98299.66
2022-11-16T09:23:33.247Z,98290.25
2022-11-16T09:26:05.377Z,98288.88
2022-11-16T09:28:32.825Z,98290.63
2022-11-16T09:31:02.044Z,98287.50
2022-11-16T09:33:30.824Z,98291.38
2022-11-16T09:36:02.140Z,98281.09
2022-11-16T09:38:40.587Z,98286.31
2022-11-16T09:41:15.753Z,98279.09
2022-11-16T09:44:02.187Z,98281.72
2022-11-16T09:46:36.097Z,98300.81
2022-11-16T09:49:17.192Z,98298.50
2022-11-16T09:51:49.440Z,98291.91
2022-11-16T09:54:20.125Z,98287.91
2022-11-16T09:56:51.688Z,98287.44
2022-11-16T09:59:25.703Z,98291.31
2022-11-16T10:02:05.246Z,98294.09
2022-11-16T10:04:40.414Z,98287.00
2022-11-16T10:07:18.201Z,98281.00
2022-11-16T10:09:46.445Z,98289.63
2022-11-16T10:12:41.308Z,98284.88
2022-11-16T10:15:31.490Z,98273.75
2022-11-16T10:18:24.356Z,98267.94
2022-11-16T10:20:59.859Z,98267.94
2022-11-16T10:23:46.756Z,98267.34
2022-11-16T10:26:58.509Z,98265.03
2022-11-16T10:30:02.198Z,98271.31
2022-11-16T10:32:32.361Z,98273.66
2022-11-16T10:35:03.633Z,98261.31
2022-11-16T10:37:37.452Z,98265.03
2022-11-16T10:40:16.853Z,98259.78
2022-11-16T10:42:46.789Z,98260.56
2022-11-16T10:45:19.822Z,98250.69
2022-11-16T10:47:53.751Z,98253.31
2022-11-16T10:50:49.962Z,98253.00
2022-11-16T10:53:46.358Z,98247.91
2022-11-16T10:56:18.990Z,98248.41
2022-11-16T10:59:06.646Z,98248.88
2022-11-16T11:01:45.375Z,98248.88
2022-11-16T11:04:27.111Z,98248.72
2022-11-16T11:07:30.013Z,98252.38
2022-11-16T11:09:56.840Z,98248.22
2022-11-16T11:12:25.374Z,98247.75
2022-11-16T11:15:10.578Z,98250.84
2022-11-16T11:17:39.824Z,98244.53
2022-11-16T11:20:17.270Z,98249.78
2022-11-16T11:22:53.279Z,98249.78
2022-11-16T11:25:25.347Z,98235.31
2022-11-16T11:28:19.979Z,98242.09
2022-11-16T11:31:17.038Z,98240.72
2022-11-16T11:33:51.824Z,98231.78
2022-11-16T11:36:25.060Z,98232.53
2022-11-16T11:39:21.240Z,98235.31
2022-11-16T11:42:14.553Z,98238.91
2022-11-16T11:44:44.039Z,98236.28
2022-11-16T11:48:01.188Z,98228.88
2022-11-16T11:50:33.893Z,98237.97
2022-11-16T11:53:34.833Z,98234.59
2022-11-16T11:56:01.992Z,98226.13
2022-11-16T11:58:35.165Z,98223.50
2022-11-16T12:01:22.218Z,98231.03
2022-11-16T12:04:28.976Z,98237.97
2022-11-16T12:07:32.881Z,98234.59
2022-11-16T12:10:03.789Z,98231.22
2022-11-16T12:12:55.358Z,98234.00
2022-11-16T12:16:19.015Z,98233.66
2022-11-16T12:19:19.679Z,98225.31
2022-11-16T12:22:17.368Z,98221.13
2022-11-16T12:24:49.859Z,98225.00
2022-11-16T12:27:35.969Z,98228.81
2022-11-16T12:30:16.563Z,98227.72
2022-11-16T12:33:00.662Z,98222.31
2022-11-16T12:35:45.407Z,98219.81
2022-11-16T12:38:39.231Z,98217.34
2022-11-16T12:41:08.928Z,98215.34
2022-11-16T12:43:54.410Z,98219.53
2022-11-16T12:46:44.839Z,98220.88
2022-11-16T12:49:50.318Z,98218.88
2022-11-16T12:52:52.879Z,98220.56
2022-11-16T12:55:28.769Z,98220.88
2022-11-16T12:58:04.716Z,98217.19
2022-11-16T13:00:53.563Z,98228.13
2022-11-16T13:03:29.685Z,98218.72
2022-11-16T13:06:06.748Z,98219.53
2022-11-16T13:08:58.232Z,98219.97
2022-11-16T13:11:55.123Z,98211.53
2022-11-16T13:14:33.561Z,98218.28
2022-11-16T13:17:02.537Z,98205.69
2022-11-16T13:19:30.605Z,98201.81
2022-11-16T13:21:57.339Z,98199.97
2022-11-16T13:24:59.820Z,98189.50
2022-11-16T13:27:32.655Z,98189.50
2022-11-16T13:30:18.356Z,98181.66
2022-11-16T13:33:27.348Z,98181.34
2022-11-16T13:35:54.357Z,98188.13
2022-11-16T13:38:51.266Z,98176.28
2022-11-16T13:41:38.325Z,98181.97
2022-11-16T13:44:33.419Z,98178.31
2022-11-16T13:47:05.057Z,98185.06
2022-11-16T13:49:41.675Z,98187.09
2022-11-16T13:52:40.436Z,98174.75
2022-11-16T13:55:13.822Z,98180.00
2022-11-16T13:57:52.274Z,98177.38
2022-11-16T14:00:23.479Z,98169.84
2022-11-16T14:03:10.561Z,98173.50
2022-11-16T14:05:40.635Z,98164.59
2022-11-16T14:08:30.525Z,98169.84
2022-11-16T14:11:01.217Z,98169.84
2022-11-16T14:13:40.216Z,98168.00
2022-11-16T14:16:30.032Z,98171.38
2022-11-16T14:18:59.821Z,98172.63
2022-11-16T14:21:46.500Z,98174.91
2022-11-16T14:24:38.009Z,98166.13
2022-11-16T14:27:31.457Z,98163.53
2022-11-16T14:30:24.861Z,98162.75
2022-11-16T14:32:55.260Z,98166.91
2022-11-16T14:35:40.769Z,98164.44
2022-11-16T14:38:36.349Z,98153.66
2022-11-16T14:41:06.409Z,98155.66
2022-11-16T14:43:42.606Z,98155.81
2022-11-16T14:46:35.890Z,98152.13
2022-11-16T14:49:03.359Z,98160.75
2022-11-16T14:51:43.413Z,98156.00
2022-11-16T14:54:27.009Z,98143.66
2022-11-16T14:57:06.492Z,98143.06
2022-11-16T14:59:33.263Z,98146.44
2022-11-16T15:02:12.495Z,98147.38
2022-11-16T15:04:39.777Z,98145.06
2022-11-16T15:07:07.634Z,98135.97
2022-11-16T15:09:37.761Z,98140.44
2022-11-16T15:12:11.883Z,98130.56
2022-11-16T15:14:46.133Z,98136.56
2022-11-16T15:17:19.393Z,98133.19
2022-11-16T15:20:15.384Z,98129.81
2022-11-16T15:22:45.909Z,98124.56
2022-11-16T15:25:28.167Z,98129.81
2022-11-16T15:27:57.053Z,98128.44
2022-11-16T15:30:33.525Z,98125.81
2022-11-16T15:33:10.999Z,98128.88
2022-11-16T15:35:38.444Z,98127.03
2022-11-16T15:38:28.446Z,98118.72
2022-11-16T15:41:01.298Z,98114.09
2022-11-16T15:44:01.469Z,98114.09
2022-11-16T15:46:33.606Z,98115.47
2022-11-16T15:49:01.165Z,98109.47
2022-11-16T15:51:28.017Z,98107.94
2022-11-16T15:53:55.798Z,98107.94
2022-11-16T15:56:25.729Z,98106.38
2022-11-16T15:58:58.343Z,98112.41
2022-11-16T16:01:25.997Z,98107.16
2022-11-16T16:03:57.310Z,98108.69
2022-11-16T16:06:58.447Z,98110.56
2022-11-16T16:09:28.937Z,98113.78
2022-11-16T16:12:14.469Z,98113.63
2022-11-16T16:14:41.618Z,98115.63
2022-11-16T16:17:10.308Z,98113.31
2022-11-16T16:19:41.902Z,98114.88
2022-11-16T16:22:26.519Z,98111.44
2022-11-16T16:24:53.723Z,98108.84
2022-11-16T16:27:26.199Z,98115.16
2022-11-16T16:29:55.249Z,98109.91
2022-11-16T16:32:32.450Z,98103.91
2022-11-16T16:35:01.820Z,98109.16
2022-11-16T16:37:31.591Z,98107.63
2022-11-16T16:39:58.895Z,98106.84
2022-11-16T16:42:25.804Z,98107.13
2022-11-16T16:44:53.077Z,98111.28
2022-11-16T16:47:20.856Z,98107.13
2022-11-16T16:49:51.365Z,98104.53
2022-11-16T16:52:18.276Z,98106.66
2022-11-16T16:54:46.094Z,98107.47
2022-11-16T16:57:18.035Z,98107.75
2022-11-16T16:59:46.463Z,98110.84
2022-11-16T17:02:14.346Z,98106.06
2022-11-16T17:04:41.667Z,98100.06
2022-11-16T17:07:08.649Z,98105.28
2022-11-16T17:09:37.257Z,98099.75
2022-11-16T17:12:05.045Z,98099.28
2022-11-16T17:14:32.195Z,98108.69
2022-11-16T17:17:02.358Z,98108.22
2022-11-16T17:19:30.418Z,98109.00
2022-11-16T17:21:57.666Z,98109.75
2022-11-16T17:24:25.397Z,98111.28
2022-11-16T17:26:53.060Z,98100.66
2022-11-16T17:29:20.451Z,98105.13
2022-11-16T17:31:48.263Z,98108.97
2022-11-16T17:34:17.216Z,98110.97
2022-11-16T17:36:44.887Z,98113.31
2022-11-16T17:39:12.547Z,98106.97
2022-11-16T17:41:40.161Z,98108.84
2022-11-16T17:44:08.707Z,98114.34
2022-11-16T17:46:37.689Z,98108.97
2022-11-16T17:49:05.383Z,98105.72
2022-11-16T17:51:40.129Z,98099.75
2022-11-16T17:54:07.561Z,98108.66
2022-11-16T17:56:36.470Z,98105.91
2022-11-16T17:59:04.360Z,98104.53
2022-11-16T18:01:31.733Z,98103.44
2022-11-16T18:04:01.091Z,98100.81
2022-11-16T18:06:28.910Z,98103.75
2022-11-16T18:08:57.401Z,98105.94
2022-11-16T18:11:28.238Z,98099.75
2022-11-16T18:14:01.321Z,98106.25
2022-11-16T18:16:32.039Z,98108.84
2022-11-16T18:19:06.007Z,98104.72
2022-11-16T18:21:41.575Z,98101.28
2022-11-16T18:24:10.332Z,98091.63
2022-11-16T18:26:39.113Z,98097.63
2022-11-16T18:29:08.866Z,98101.44
2022-11-16T18:31:36.473Z,98101.44
2022-11-16T18:34:04.521Z,98105.94
2022-11-16T18:36:32.184Z,98106.22
2022-11-16T18:39:00.672Z,98103.94
2022-11-16T18:41:29.949Z,98101.91
2022-11-16T18:44:02.344Z,98099.31
2022-11-16T18:46:32.570Z,98104.38
2022-11-16T18:49:01.226Z,98102.41
2022-11-16T18:51:30.543Z,98103.94
2022-11-16T18:53:58.117Z,98104.53
2022-11-16T18:56:26.615Z,98100.41
2022-11-16T18:58:54.245Z,98105.91
2022-11-16T19:01:25.029Z,98103.63
2022-11-16T19:03:55.358Z,98102.09
2022-11-16T19:06:24.109Z,98103.16
2022-11-16T19:09:08.462Z,98104.22
2022-11-16T19:11:46.764Z,98094.06
2022-11-16T19:14:18.134Z,98098.06
2022-11-16T19:20:08.839Z,98090.50
2022-11-16T19:22:37.929Z,98087.44
2022-11-16T19:25:06.247Z,98091.91
2022-11-16T19:27:35.338Z,98093.56
2022-11-16T19:30:03.278Z,98095.44
2022-11-16T19:32:32.623Z,98100.66
2022-11-16T19:35:00.349Z,98093.41
2022-11-16T19:37:29.746Z,98093.91
2022-11-16T19:39:57.482Z,98092.53
2022-11-16T19:42:29.629Z,98098.53
2022-11-16T19:44:57.382Z,98107.63
2022-11-16T19:47:25.022Z,98102.06
2022-11-16T19:49:53.423Z,98096.81
2022-11-16T19:52:20.924Z,98085.59
2022-11-16T19:54:48.712Z,98095.13
2022-11-16T19:57:49.706Z,98096.22
2022-11-16T20:00:22.893Z,98091.47
2022-11-16T20:02:50.919Z,98085.13
2022-11-16T20:05:18.681Z,98084.38
2022-11-16T20:07:46.446Z,98088.53
2022-11-16T20:10:14.183Z,98084.38
2022-11-16T20:12:41.682Z,98084.38
2022-11-16T20:15:09.903Z,98093.44
2022-11-16T20:17:37.689Z,98086.22
2022-11-16T20:20:05.743Z,98084.38
2022-11-16T20:22:33.194Z,98088.03
2022-11-16T20:25:00.902Z,98080.19
2022-11-16T20:27:28.904Z,98084.66
2022-11-16T20:29:56.839Z,98077.13
2022-11-16T20:32:24.727Z,98072.34
2022-11-16T20:34:52.216Z,98066.34
2022-11-16T20:37:19.943Z,98066.66
2022-11-16T20:39:48.255Z,98068.19
2022-11-16T20:42:15.958Z,98066.81
2022-11-16T20:44:44.355Z,98063.44
2022-11-16T20:47:13.193Z,98071.72
2022-11-16T20:49:41.728Z,98067.25
2022-11-16T20:52:09.326Z,98069.44
2022-11-16T20:54:36.847Z,98058.19
2022-11-16T20:57:04.057Z,98051.09
2022-11-16T20:59:32.728Z,98054.47
2022-11-16T21:02:00.049Z,98049.25
2022-11-16T21:04:27.556Z,98046.63
2022-11-16T21:06:54.719Z,98051.88
2022-11-16T21:09:21.503Z,98045.53
2022-11-16T21:11:49.149Z,98044.00
2022-11-16T21:14:16.324Z,98045.88
2022-11-16T21:16:44.148Z,98050.94
2022-11-16T21:19:12.194Z,98043.72
2022-11-16T21:21:39.211Z,98041.09
2022-11-16T21:24:07.383Z,98032.00
2022-11-16T21:26:35.179Z,98029.69
2022-11-16T21:29:02.088Z,98031.53
2022-11-16T21:31:31.470Z,98027.38
2022-11-16T21:33:59.258Z,98029.97
2022-11-16T21:36:28.128Z,98024.47
2022-11-16T21:38:56.670Z,98024.75
2022-11-16T21:41:25.193Z,98027.38
2022-11-16T21:43:51.993Z,98024.00
2022-11-16T21:46:24.029Z,98021.69
2022-11-16T21:48:51.313Z,98023.53
2022-11-16T21:51:20.254Z,98030.31
2022-11-16T21:53:47.500Z,98037.06
2022-11-16T21:56:17.201Z,98030.31
2022-11-16T21:58:44.955Z,98027.97
2022-11-16T22:01:13.449Z,98024.31
2022-11-16T22:03:40.434Z,98026.91
2022-11-16T22:06:11.839Z,98023.06
2022-11-16T22:08:39.832Z,98029.53
2022-11-16T22:11:09.143Z,98031.06
2022-11-16T22:13:37.692Z,98028.94
2022-11-16T22:16:09.235Z,98028.94
2022-11-16T22:18:36.468Z,98021.06
2022-11-16T22:21:04.427Z,98019.84
2022-11-16T22:23:32.115Z,98029.97
2022-11-16T22:26:03.926Z,98023.81
2022-11-16T22:28:32.235Z,98019.53
2022-11-16T22:31:03.703Z,98025.53
2022-11-16T22:33:30.590Z,98027.81
2022-11-16T22:35:57.905Z,98019.69
2022-11-16T22:38:24.795Z,98029.84
2022-11-16T22:40:52.936Z,98024.31
2022-11-16T22:43:21.596Z,98031.06
2022-11-16T22:45:48.407Z,98022.59
2022-11-16T22:48:15.490Z,98031.53
2022-11-16T22:50:42.690Z,98031.22
2022-11-16T22:53:10.468Z,98029.09
2022-11-16T22:55:38.652Z,98037.25
2022-11-16T22:58:06.391Z,98034.63
2022-11-16T23:00:38.967Z,98033.06
2022-11-16T23:03:06.108Z,98033.06
2022-11-16T23:05:32.959Z,98033.38
2022-11-16T23:07:59.753Z,98036.47
2022-11-16T23:10:26.732Z,98035.69
2022-11-16T23:12:54.167Z,98028.91
2022-11-16T23:15:20.898Z,98032.31
2022-11-16T23:17:47.756Z,98029.25
2022-11-16T23:20:17.615Z,98029.25
2022-11-16T23:22:45.132Z,98022.75
2022-11-16T23:25:12.412Z,98022.00
2022-11-16T23:27:57.433Z,98019.38
2022-11-16T23:30:24.908Z,98019.22
2022-11-16T23:32:51.934Z,98020.75
2022-11-16T23:35:18.963Z,98033.22
2022-11-16T23:37:53.368Z,98028.31
2022-11-16T23:40:21.406Z,98031.38
2022-11-16T23:42:48.430Z,98036.31
2022-11-16T23:45:15.233Z,98033.38
2022-11-16T23:47:42.006Z,98034.63
2022-11-16T23:50:09.197Z,98040.31
2022-11-16T23:52:37.048Z,98037.41
2022-11-16T23:55:04.117Z,98046.19
2022-11-16T23:57:30.963Z,98040.16
2022-11-16T23:59:57.719Z,98039.41
